Time;durP1;ratioP1;P1;durP2;ratioP2;P2;SDS_P1;SDS_P2;PMS_P1;PMS_P2;Temp;Humidity;BMP_temperature;BMP_pressure;BME280_temperature;BME280_humidity;BME280_pressure;Samples;Min_cycle;Max_cycle;Signal;HPM_P1;HPM_P2
2023/10/07 00:01:53;;;;;;;9.67;5.07;;;15.30;81.60;;;;;;5053347;28;20424;-79
2023/10/07 00:04:19;;;;;;;10.63;5.30;;;15.20;99.90;;;;;;5035201;28;20444;-79
2023/10/07 00:06:45;;;;;;;5.67;4.23;;;15.20;99.90;;;;;;5035499;28;20190;-79
2023/10/07 00:09:15;;;;;;;8.70;5.23;;;15.20;1.00;;;;;;5050315;28;20189;-80
2023/10/07 00:11:46;;;;;;;7.20;5.00;;;15.20;1.00;;;;;;5034305;28;20806;-80
2023/10/07 00:14:12;;;;;;;9.80;5.40;;;15.20;6.20;;;;;;5050611;28;20468;-79
2023/10/07 00:16:38;;;;;;;11.17;5.30;;;15.20;52.50;;;;;;5053445;28;20467;-79
2023/10/07 00:19:03;;;;;;;13.53;5.07;;;15.20;15.60;;;;;;5035404;28;20274;-80
2023/10/07 00:21:52;;;;;;;10.97;6.13;;;15.20;99.90;;;;;;5053172;28;20417;-80
2023/10/07 00:24:16;;;;;;;8.37;4.40;;;15.20;99.90;;;;;;5053132;28;20238;-80
2023/10/07 00:26:43;;;;;;;9.10;4.90;;;15.10;99.90;;;;;;5034009;28;20444;-80
2023/10/07 00:29:12;;;;;;;9.83;5.50;;;15.10;99.90;;;;;;5037636;28;20511;-79
2023/10/07 00:31:40;;;;;;;13.47;5.50;;;15.10;99.90;;;;;;5056965;28;20443;-80
2023/10/07 00:34:15;;;;;;;5.73;4.50;;;15.10;1.00;;;;;;5056723;28;20483;-80
2023/10/07 00:39:09;;;;;;;12.13;5.40;;;15.10;1.00;;;;;;5056574;28;20416;-80
2023/10/07 00:41:40;;;;;;;12.33;5.70;;;15.10;1.00;;;;;;5056554;28;20656;-80
2023/10/07 00:44:22;;;;;;;11.70;6.00;;;15.10;1.00;;;;;;5053765;28;20452;-79
2023/10/07 00:46:51;;;;;;;9.43;5.80;;;15.10;1.00;;;;;;5056536;28;20473;-80
2023/10/07 00:49:27;;;;;;;9.90;4.73;;;15.10;1.00;;;;;;5038502;28;20424;-80
2023/10/07 00:51:54;;;;;;;13.17;5.43;;;15.10;1.00;;;;;;5038481;28;20802;-79
2023/10/07 00:54:30;;;;;;;9.13;4.90;;;15.00;1.00;;;;;;5056358;28;20472;-80
2023/10/07 00:57:10;;;;;;;14.53;6.17;;;15.00;1.00;;;;;;5038638;28;20435;-80
2023/10/07 00:59:40;;;;;;;10.67;5.47;;;15.00;1.00;;;;;;5055916;28;20518;-80
2023/10/07 01:02:09;;;;;;;10.73;5.70;;;15.00;1.00;;;;;;5051660;28;20443;-80
2023/10/07 01:04:40;;;;;;;8.30;5.10;;;15.00;1.00;;;;;;5055951;28;20464;-79
2023/10/07 01:07:07;;;;;;;8.70;5.47;;;15.00;4.30;;;;;;5056414;28;20427;-80
2023/10/07 01:09:32;;;;;;;9.83;4.93;;;15.00;13.10;;;;;;5056096;28;20431;-80
2023/10/07 01:11:58;;;;;;;11.67;5.27;;;15.00;99.90;;;;;;5056615;28;20412;-79
2023/10/07 01:14:28;;;;;;;13.33;6.10;;;14.90;77.70;;;;;;5038421;28;20209;-79
2023/10/07 01:16:54;;;;;;;10.90;5.73;;;14.90;99.90;;;;;;5040722;28;20459;-78
2023/10/07 01:19:29;;;;;;;11.87;6.50;;;14.90;99.90;;;;;;5041231;28;20449;-78
2023/10/07 01:22:09;;;;;;;16.03;6.60;;;14.90;99.90;;;;;;5061283;28;20429;-80
2023/10/07 01:27:18;;;;;;;14.13;6.33;;;14.90;99.90;;;;;;5047846;28;20425;-80
2023/10/07 01:29:44;;;;;;;8.63;5.10;;;14.90;99.90;;;;;;5055048;28;20469;-79
2023/10/07 01:32:15;;;;;;;17.03;6.50;;;14.90;99.90;;;;;;5055629;28;20459;-79
2023/10/07 01:34:47;;;;;;;10.03;6.10;;;14.80;99.90;;;;;;5037027;28;20498;-80
2023/10/07 01:37:15;;;;;;;11.83;6.70;;;14.80;99.90;;;;;;5052606;28;20451;-78
2023/10/07 01:39:42;;;;;;;14.50;5.63;;;14.80;99.90;;;;;;5053652;28;20420;-78
2023/10/07 01:42:23;;;;;;;12.63;6.37;;;14.80;99.90;;;;;;5054897;28;20416;-78
2023/10/07 01:44:54;;;;;;;9.63;6.13;;;14.80;99.90;;;;;;5037309;28;21000;-79
2023/10/07 01:47:24;;;;;;;12.93;5.27;;;14.90;99.90;;;;;;5055294;28;20788;-79
2023/10/07 01:49:53;;;;;;;16.00;6.90;;;14.90;99.90;;;;;;5036608;28;20452;-78
2023/10/07 01:52:24;;;;;;;7.40;5.80;;;14.90;99.90;;;;;;5055423;28;20413;-78
2023/10/07 01:54:52;;;;;;;11.20;5.97;;;14.80;99.90;;;;;;5052353;28;20472;-78
2023/10/07 01:57:18;;;;;;;14.83;6.73;;;14.80;99.90;;;;;;5053828;28;20464;-78
2023/10/07 01:59:45;;;;;;;14.90;6.87;;;14.80;99.90;;;;;;5053332;28;20427;-78
2023/10/07 02:02:12;;;;;;;9.70;5.60;;;14.80;99.90;;;;;;5054003;28;20273;-78
2023/10/07 02:04:38;;;;;;;10.87;6.43;;;14.80;99.90;;;;;;5035901;28;20449;-78
2023/10/07 02:07:04;;;;;;;20.67;7.20;;;14.80;99.90;;;;;;5053711;28;20427;-78
2023/10/07 02:09:35;;;;;;;7.47;6.47;;;14.80;99.90;;;;;;5053914;28;20433;-78
2023/10/07 02:12:03;;;;;;;13.33;6.70;;;14.80;99.90;;;;;;5051984;28;20197;-78
2023/10/07 02:14:28;;;;;;;11.40;6.10;;;14.80;99.90;;;;;;5035797;28;20573;-78
2023/10/07 02:16:56;;;;;;;16.37;6.03;;;14.80;99.90;;;;;;5053999;28;20909;-78
2023/10/07 02:19:29;;;;;;;17.23;8.17;;;14.80;99.90;;;;;;5053630;28;20652;-78
2023/10/07 02:22:03;;;;;;;10.40;6.23;;;14.80;1.00;;;;;;5054400;28;20474;-80
2023/10/07 02:24:33;;;;;;;14.00;7.00;;;14.80;1.00;;;;;;5054094;28;20463;-79
2023/10/07 02:27:03;;;;;;;15.23;6.53;;;14.90;1.00;;;;;;5054189;28;20837;-78
2023/10/07 02:29:29;;;;;;;13.10;6.87;;;14.90;1.00;;;;;;5052241;28;20436;-78
2023/10/07 02:32:06;;;;;;;17.13;7.30;;;14.90;99.90;;;;;;5053910;28;20447;-79
2023/10/07 02:34:33;;;;;;;13.47;6.43;;;15.00;99.90;;;;;;5054243;28;20204;-78
2023/10/07 02:37:17;;;;;;;14.40;7.27;;;15.00;99.90;;;;;;5053809;28;20427;-78
2023/10/07 02:39:45;;;;;;;14.70;7.10;;;15.00;99.90;;;;;;5053912;28;20774;-80
2023/10/07 02:42:20;;;;;;;14.80;6.90;;;15.00;99.90;;;;;;5028235;28;20531;-80
2023/10/07 02:44:46;;;;;;;12.67;7.50;;;15.00;99.90;;;;;;5054675;28;20878;-79
2023/10/07 02:47:12;;;;;;;12.20;8.07;;;15.00;1.00;;;;;;5039288;28;20433;-80
2023/10/07 02:49:46;;;;;;;12.13;7.20;;;15.00;1.00;;;;;;5054396;28;20416;-80
2023/10/07 02:52:16;;;;;;;12.07;7.60;;;15.00;1.00;;;;;;5036235;28;20177;-79
2023/10/07 02:54:42;;;;;;;13.03;8.33;;;15.00;1.00;;;;;;5053960;28;20468;-80
2023/10/07 02:57:09;;;;;;;11.37;8.20;;;15.00;1.00;;;;;;5053654;28;20522;-79
2023/10/07 02:59:36;;;;;;;12.60;7.80;;;15.00;1.00;;;;;;5053887;28;20412;-79
2023/10/07 03:07:41;;;;;;;16.80;9.47;;;15.10;1.00;;;;;;5053963;28;21068;-80
2023/10/07 03:10:16;;;;;;;15.47;9.03;;;15.00;1.00;;;;;;5053692;28;20428;-79
2023/10/07 03:12:49;;;;;;;12.40;7.53;;;15.00;1.00;;;;;;5053582;28;20534;-79
2023/10/07 03:15:21;;;;;;;15.70;8.67;;;15.10;1.00;;;;;;5053962;28;20475;-79
2023/10/07 03:17:46;;;;;;;15.67;8.10;;;15.10;1.00;;;;;;5035855;28;20503;-80
2023/10/07 03:28:19;;;;;;;17.73;8.90;;;15.10;1.00;;;;;;5053635;28;20855;-80
2023/10/07 03:30:52;;;;;;;12.13;8.23;;;15.20;1.00;;;;;;5051027;28;20473;-78
2023/10/07 03:33:23;;;;;;;17.40;8.30;;;15.20;1.00;;;;;;5052655;28;20448;-79
2023/10/07 03:36:29;;;;;;;40.27;9.93;;;15.20;1.00;;;;;;5053752;28;20490;-80
2023/10/07 03:38:35;;;;;;;13.17;8.10;;;15.20;1.00;;;;;;5053218;28;20424;-80
2023/10/07 03:41:01;;;;;;;16.60;8.93;;;15.30;1.00;;;;;;5054300;28;20848;-80
2023/10/07 03:43:27;;;;;;;19.13;8.20;;;15.30;1.00;;;;;;5053871;28;20444;-80
2023/10/07 03:45:54;;;;;;;13.00;7.87;;;15.30;1.00;;;;;;5053560;28;20727;-80
2023/10/07 03:48:30;;;;;;;13.43;8.50;;;15.30;1.00;;;;;;5051442;28;20193;-79
2023/10/07 03:50:59;;;;;;;11.53;7.20;;;15.30;1.00;;;;;;5053913;28;20959;-80
2023/10/07 03:54:09;;;;;;;12.43;8.20;;;15.30;1.00;;;;;;5054136;28;20444;-79
2023/10/07 03:56:20;;;;;;;12.93;7.63;;;15.30;1.00;;;;;;5050214;28;20427;-80
2023/10/07 03:58:47;;;;;;;12.17;9.13;;;15.40;1.00;;;;;;5053677;28;21019;-80
2023/10/07 04:01:17;;;;;;;21.80;8.80;;;15.40;1.00;;;;;;5036982;28;20960;-79
2023/10/07 04:03:48;;;;;;;14.13;8.80;;;15.40;1.00;;;;;;5052554;28;20460;-80
2023/10/07 04:06:18;;;;;;;13.83;9.10;;;15.40;1.00;;;;;;5061461;28;20434;-78
2023/10/07 04:08:54;;;;;;;13.53;7.03;;;15.40;1.00;;;;;;5062848;28;20424;-78
2023/10/07 04:11:25;;;;;;;11.80;7.90;;;15.40;1.00;;;;;;5059423;28;20427;-79
2023/10/07 04:13:53;;;;;;;15.60;8.13;;;15.40;1.00;;;;;;5056628;28;20463;-79
2023/10/07 04:16:27;;;;;;;14.90;7.67;;;15.40;1.00;;;;;;5057203;28;20523;-78
2023/10/07 04:19:30;;;;;;;12.80;7.93;;;15.40;1.00;;;;;;5056803;28;20470;-80
2023/10/07 04:21:54;;;;;;;17.57;8.87;;;15.50;1.00;;;;;;5053387;28;20454;-79
2023/10/07 04:24:23;;;;;;;12.70;8.27;;;15.50;1.00;;;;;;5038319;28;20796;-79
2023/10/07 04:26:54;;;;;;;17.40;8.80;;;15.50;1.00;;;;;;5055577;28;20427;-78
2023/10/07 04:29:21;;;;;;;11.57;7.63;;;15.50;1.00;;;;;;5054484;28;20416;-79
2023/10/07 04:31:51;;;;;;;15.70;8.20;;;15.50;1.00;;;;;;5037528;28;20429;-79
2023/10/07 04:34:18;;;;;;;17.13;8.37;;;15.50;1.00;;;;;;5053903;28;20464;-79
2023/10/07 04:39:53;;;;;;;11.30;7.80;;;15.50;1.00;;;;;;5054250;28;20420;-79
2023/10/07 04:42:22;;;;;;;17.37;8.60;;;15.60;1.00;;;;;;5054162;28;20424;-79
2023/10/07 04:52:39;;;;;;;12.93;7.50;;;15.50;1.00;;;;;;5051029;28;20424;-78
2023/10/07 04:55:11;;;;;;;10.57;7.17;;;15.50;1.00;;;;;;5053469;28;20468;-79
2023/10/07 05:00:17;;;;;;;11.83;7.30;;;15.60;1.00;;;;;;5053944;28;20428;-80
2023/10/07 05:02:43;;;;;;;11.67;7.10;;;15.60;1.00;;;;;;5053525;28;20981;-80
2023/10/07 05:05:13;;;;;;;11.10;7.20;;;15.60;1.00;;;;;;5036002;28;20489;-79
2023/10/07 05:07:39;;;;;;;10.57;7.60;;;15.60;1.00;;;;;;5053837;28;20791;-77
2023/10/07 05:10:07;;;;;;;13.17;6.80;;;15.60;1.00;;;;;;5050270;28;20190;-79
2023/10/07 05:12:33;;;;;;;13.67;7.77;;;15.70;1.00;;;;;;5035428;28;20421;-79
2023/10/07 05:15:00;;;;;;;13.40;6.83;;;15.70;1.00;;;;;;5034623;28;20472;-79
2023/10/07 05:17:29;;;;;;;16.87;7.50;;;15.70;1.00;;;;;;5053348;28;20423;-78
2023/10/07 05:19:58;;;;;;;14.60;8.17;;;15.70;1.00;;;;;;5053531;28;20416;-79
2023/10/07 05:22:24;;;;;;;12.70;7.27;;;15.60;1.00;;;;;;5035088;28;20939;-80
2023/10/07 05:24:56;;;;;;;14.27;7.00;;;15.60;1.00;;;;;;5053762;28;20440;-78
2023/10/07 05:27:23;;;;;;;11.40;6.60;;;15.70;1.00;;;;;;5051607;28;20471;-78
2023/10/07 05:29:49;;;;;;;9.83;7.30;;;15.60;1.00;;;;;;5054714;28;20450;-78
2023/10/07 05:32:16;;;;;;;12.73;7.47;;;15.60;1.00;;;;;;5054756;28;20416;-78
2023/10/07 05:34:42;;;;;;;10.67;6.00;;;15.60;1.00;;;;;;5036032;28;20494;-82
2023/10/07 05:37:14;;;;;;;13.90;6.73;;;15.70;1.00;;;;;;5053581;28;20416;-79
2023/10/07 05:39:41;;;;;;;11.83;6.67;;;15.60;1.00;;;;;;5056123;28;20538;-82
2023/10/07 05:42:07;;;;;;;11.50;6.50;;;15.70;1.00;;;;;;5057289;28;20417;-82
2023/10/07 05:44:35;;;;;;;14.40;7.30;;;15.70;1.00;;;;;;5053624;28;20471;-79
2023/10/07 05:47:02;;;;;;;12.43;6.57;;;15.70;1.00;;;;;;5053053;28;20421;-79
2023/10/07 05:49:31;;;;;;;8.00;5.77;;;15.70;1.00;;;;;;5045100;28;20938;-78
2023/10/07 05:51:58;;;;;;;15.43;6.23;;;15.70;1.00;;;;;;5052999;28;20474;-79
2023/10/07 05:54:24;;;;;;;12.07;6.27;;;15.80;1.00;;;;;;5052690;28;20839;-80
2023/10/07 05:56:49;;;;;;;15.30;7.27;;;15.80;1.00;;;;;;5053634;28;20416;-79
2023/10/07 05:59:15;;;;;;;11.53;6.67;;;15.80;1.00;;;;;;5052486;28;20424;-79
2023/10/07 06:01:41;;;;;;;14.70;5.97;;;15.80;1.00;;;;;;5054961;28;20182;-80
2023/10/07 06:04:07;;;;;;;11.20;6.80;;;15.80;1.00;;;;;;5035020;28;20444;-82
2023/10/07 06:06:33;;;;;;;16.70;6.40;;;15.80;1.00;;;;;;5051239;28;20781;-79
2023/10/07 06:09:02;;;;;;;11.40;5.70;;;15.80;1.00;;;;;;5035207;28;20412;-81
2023/10/07 06:11:34;;;;;;;11.73;5.93;;;15.80;1.00;;;;;;5053250;28;20874;-79
2023/10/07 06:14:01;;;;;;;10.30;5.43;;;15.90;1.00;;;;;;5052585;28;20467;-78
2023/10/07 06:16:26;;;;;;;10.70;6.60;;;15.90;1.00;;;;;;5053333;28;20466;-82
2023/10/07 06:18:53;;;;;;;10.63;6.00;;;16.00;1.00;;;;;;5054302;28;20444;-81
2023/10/07 06:21:27;;;;;;;12.13;6.53;;;16.00;1.00;;;;;;5056518;28;20185;-81
2023/10/07 06:23:53;;;;;;;9.83;5.50;;;16.00;99.90;;;;;;5051831;28;20519;-79
2023/10/07 06:26:19;;;;;;;9.70;5.40;;;16.00;99.90;;;;;;5049863;28;20516;-79
2023/10/07 06:28:48;;;;;;;18.33;6.37;;;16.10;99.90;;;;;;5052136;28;20507;-79
2023/10/07 06:31:14;;;;;;;10.47;6.30;;;16.10;99.90;;;;;;5052124;28;20265;-79
2023/10/07 06:33:46;;;;;;;11.37;6.53;;;16.10;99.90;;;;;;5052330;28;20479;-79
2023/10/07 06:36:12;;;;;;;8.20;5.47;;;16.10;99.90;;;;;;5052256;28;20416;-78
2023/10/07 06:38:45;;;;;;;9.40;5.40;;;16.20;99.90;;;;;;5051309;28;20796;-79
2023/10/07 06:41:11;;;;;;;12.07;5.87;;;16.20;99.90;;;;;;5051979;28;20420;-79
2023/10/07 06:43:38;;;;;;;12.23;6.47;;;16.20;99.90;;;;;;5052180;28;20432;-79
2023/10/07 06:46:10;;;;;;;13.70;5.70;;;16.20;99.90;;;;;;5050056;28;20444;-79
2023/10/07 06:48:39;;;;;;;12.83;6.13;;;16.30;99.90;;;;;;5049942;28;20416;-79
2023/10/07 06:51:06;;;;;;;10.70;5.40;;;16.40;99.90;;;;;;5052629;28;20432;-79
2023/10/07 06:53:35;;;;;;;9.30;4.70;;;16.50;99.90;;;;;;5053224;28;20824;-78
2023/10/07 06:56:01;;;;;;;10.10;5.90;;;16.70;99.90;;;;;;5055745;28;20416;-78
2023/10/07 06:58:27;;;;;;;9.90;6.07;;;16.90;2.70;;;;;;5053578;28;20440;-78
2023/10/07 07:03:51;;;;;;;10.87;5.43;;;17.30;99.90;;;;;;5026909;28;20436;-78
2023/10/07 07:06:17;;;;;;;8.67;5.23;;;17.40;18.20;;;;;;5050371;28;20436;-78
2023/10/07 07:08:44;;;;;;;9.30;6.00;;;17.50;1.00;;;;;;5052822;28;20973;-79
2023/10/07 07:11:10;;;;;;;13.83;5.50;;;17.50;1.00;;;;;;5051972;28;20595;-78
2023/10/07 07:13:36;;;;;;;13.53;5.60;;;17.50;1.00;;;;;;5052665;28;20460;-79
2023/10/07 07:16:08;;;;;;;9.30;5.60;;;17.40;1.00;;;;;;5053851;28;20178;-79
2023/10/07 07:18:33;;;;;;;8.60;5.47;;;17.40;1.00;;;;;;5052115;28;20910;-79
2023/10/07 07:23:45;;;;;;;9.00;5.50;;;17.50;1.00;;;;;;5048234;28;20627;-79
2023/10/07 07:26:12;;;;;;;8.37;5.20;;;17.40;1.00;;;;;;5051885;28;20417;-78
2023/10/07 07:28:47;;;;;;;11.70;5.20;;;17.50;1.00;;;;;;5052193;28;20496;-80
2023/10/07 07:31:18;;;;;;;12.63;5.80;;;17.50;1.00;;;;;;5051721;28;20416;-78
2023/10/07 07:33:48;;;;;;;11.53;5.07;;;17.40;1.00;;;;;;5045135;28;20993;-79
2023/10/07 07:39:01;;;;;;;11.57;5.23;;;17.30;48.20;;;;;;5054975;28;20845;-79
2023/10/07 07:41:29;;;;;;;10.03;4.83;;;17.30;99.90;;;;;;5053252;28;20471;-78
2023/10/07 07:43:58;;;;;;;8.63;4.70;;;17.30;99.90;;;;;;5038524;28;20255;-79
2023/10/07 07:46:31;;;;;;;11.60;4.90;;;17.30;99.90;;;;;;5037938;28;20431;-78
2023/10/07 07:49:06;;;;;;;9.80;5.47;;;17.30;99.90;;;;;;5038453;28;20432;-79
2023/10/07 07:51:39;;;;;;;8.47;5.23;;;17.30;99.90;;;;;;5056070;28;20424;-78
2023/10/07 07:54:08;;;;;;;11.13;5.47;;;17.20;99.90;;;;;;5038253;28;20460;-80
2023/10/07 07:56:35;;;;;;;7.80;5.20;;;17.20;99.90;;;;;;5038040;28;20492;-79
2023/10/07 07:59:13;;;;;;;9.20;5.90;;;17.10;1.00;;;;;;5038102;28;20485;-79
2023/10/07 08:01:44;;;;;;;14.67;6.10;;;17.10;1.00;;;;;;5037893;28;20416;-79
2023/10/07 08:04:37;;;;;;;8.93;5.40;;;17.00;1.00;;;;;;5037568;28;20435;-79
2023/10/07 08:07:17;;;;;;;9.87;5.37;;;17.00;1.00;;;;;;5055434;28;20523;-79
2023/10/07 08:09:44;;;;;;;9.70;4.47;;;17.10;1.00;;;;;;5035334;28;20478;-79
2023/10/07 08:12:10;;;;;;;13.70;5.27;;;17.20;1.00;;;;;;5052127;28;20446;-79
2023/10/07 08:14:38;;;;;;;14.93;5.90;;;17.30;1.00;;;;;;5055483;28;20467;-79
2023/10/07 08:17:08;;;;;;;8.63;4.97;;;17.40;99.90;;;;;;5055692;28;20178;-79
2023/10/07 08:19:34;;;;;;;11.30;5.83;;;17.70;1.00;;;;;;5055515;28;20465;-79
2023/10/07 08:22:02;;;;;;;12.23;4.60;;;18.20;99.90;;;;;;5037864;28;20425;-79
2023/10/07 08:24:30;;;;;;;7.93;4.60;;;19.10;1.00;;;;;;5056002;28;20205;-79
2023/10/07 08:27:03;;;;;;;7.70;4.40;;;19.60;32.90;;;;;;5053829;28;20428;-78
2023/10/07 08:29:32;;;;;;;8.10;4.83;;;20.70;99.90;;;;;;5056374;28;20953;-79
2023/10/07 08:32:11;;;;;;;9.57;4.63;;;21.30;1.00;;;;;;5056657;28;20938;-79
2023/10/07 08:34:37;;;;;;;8.77;4.37;;;21.70;1.00;;;;;;5056489;28;20562;-80
2023/10/07 08:37:08;;;;;;;13.33;5.30;;;22.30;1.00;;;;;;5057125;28;20431;-80
2023/10/07 08:39:44;;;;;;;9.47;5.00;;;22.90;1.00;;;;;;5056593;28;20503;-79
2023/10/07 08:42:13;;;;;;;10.07;4.80;;;22.70;99.90;;;;;;5056083;28;20413;-79
2023/10/07 08:44:39;;;;;;;8.33;5.13;;;22.50;99.90;;;;;;5053048;28;20456;-80
2023/10/07 08:47:10;;;;;;;11.30;4.90;;;22.10;99.90;;;;;;5056056;28;20430;-79
2023/10/07 08:49:36;;;;;;;12.50;5.27;;;21.90;99.90;;;;;;5055942;28;20429;-80
2023/10/07 08:52:08;;;;;;;11.23;5.37;;;21.60;1.00;;;;;;5056199;28;20507;-80
2023/10/07 08:54:37;;;;;;;8.47;4.40;;;21.60;1.00;;;;;;5056384;28;20556;-80
2023/10/07 08:57:15;;;;;;;10.70;5.53;;;22.00;1.00;;;;;;5052555;28;20438;-79
2023/10/07 08:59:42;;;;;;;8.83;4.63;;;22.70;99.90;;;;;;5038427;28;20950;-80
2023/10/07 09:02:12;;;;;;;9.10;4.37;;;24.50;99.90;;;;;;5057605;28;20417;-80
2023/10/07 09:04:40;;;;;;;10.00;4.50;;;27.40;99.90;;;;;;5040545;28;20497;-81
2023/10/07 09:07:11;;;;;;;13.07;5.20;;;28.80;99.90;;;;;;5058074;28;20426;-80
2023/10/07 09:09:38;;;;;;;9.80;4.50;;;29.10;99.90;;;;;;5057011;28;20464;-80
2023/10/07 09:12:30;;;;;;;7.80;3.77;;;30.10;99.90;;;;;;5058351;28;20539;-80
2023/10/07 09:14:57;;;;;;;7.30;4.20;;;30.70;99.90;;;;;;5054896;28;20841;-80
2023/10/07 09:17:24;;;;;;;10.17;4.07;;;31.20;99.90;;;;;;5059271;28;20430;-80
2023/10/07 09:19:53;;;;;;;7.43;3.93;;;32.50;99.90;;;;;;5040681;28;20427;-81
2023/10/07 09:22:27;;;;;;;6.97;4.23;;;33.40;99.90;;;;;;5059038;28;20453;-80
2023/10/07 09:25:09;;;;;;;7.90;4.00;;;33.90;99.90;;;;;;5059313;28;20467;-81
2023/10/07 09:27:37;;;;;;;8.93;4.40;;;34.00;99.90;;;;;;5059187;28;20419;-81
2023/10/07 09:32:55;;;;;;;7.50;3.90;;;35.20;99.90;;;;;;5051677;28;20411;-81
2023/10/07 09:35:22;;;;;;;6.53;3.20;;;35.50;99.90;;;;;;5059353;28;20463;-80
2023/10/07 09:37:53;;;;;;;7.70;3.30;;;35.90;99.90;;;;;;5041302;28;20844;-80
2023/10/07 09:43:13;;;;;;;8.43;4.10;;;36.00;99.90;;;;;;5059930;28;20436;-80
2023/10/07 09:45:39;;;;;;;4.57;3.40;;;36.30;99.90;;;;;;5059792;28;20443;-80
2023/10/07 09:48:05;;;;;;;7.27;3.47;;;36.40;99.90;;;;;;5054865;28;20453;-81
2023/10/07 09:50:34;;;;;;;5.87;3.60;;;36.70;99.90;;;;;;5056707;28;20504;-81
2023/10/07 09:53:15;;;;;;;5.53;3.73;;;36.90;99.90;;;;;;5056267;28;20523;-80
2023/10/07 09:56:20;;;;;;;6.67;4.10;;;36.80;99.90;;;;;;5056448;28;21035;-80
2023/10/07 09:59:13;;;;;;;5.90;3.20;;;37.00;99.90;;;;;;5056435;28;20428;-80
2023/10/07 10:02:16;;;;;;;5.53;3.30;;;37.00;99.90;;;;;;5038386;28;20447;-80
2023/10/07 10:05:12;;;;;;;7.40;3.70;;;36.90;99.90;;;;;;5054380;28;20452;-82
2023/10/07 10:08:11;;;;;;;4.20;2.77;;;36.50;99.90;;;;;;5038444;28;20421;-81
2023/10/07 10:10:44;;;;;;;5.30;3.37;;;36.40;99.90;;;;;;5055267;28;20424;-81
2023/10/07 10:16:19;;;;;;;6.77;3.70;;;36.80;99.90;;;;;;5057903;28;20653;-80
2023/10/07 10:18:50;;;;;;;7.13;3.30;;;36.30;99.90;;;;;;5057552;28;20547;-80
2023/10/07 10:21:22;;;;;;;6.83;3.87;;;36.10;99.90;;;;;;5054533;28;20444;-80
2023/10/07 10:23:51;;;;;;;8.63;3.60;;;36.20;99.90;;;;;;5056721;28;20482;-81
2023/10/07 10:26:22;;;;;;;4.50;3.20;;;35.90;99.90;;;;;;5041212;28;20492;-81
2023/10/07 10:29:06;;;;;;;5.47;3.20;;;35.90;99.90;;;;;;5038097;28;20413;-80
2023/10/07 10:31:34;;;;;;;5.93;3.30;;;35.80;99.90;;;;;;5056851;28;20434;-80
2023/10/07 10:34:14;;;;;;;4.00;2.90;;;35.70;99.90;;;;;;5056476;28;20456;-80
2023/10/07 10:36:43;;;;;;;6.37;3.07;;;35.80;99.90;;;;;;5056663;28;20930;-80
2023/10/07 10:39:25;;;;;;;7.20;4.23;;;35.60;99.90;;;;;;5039119;28;20437;-79
2023/10/07 10:41:53;;;;;;;5.40;3.63;;;35.80;99.90;;;;;;5055872;28;20923;-80
2023/10/07 10:44:20;;;;;;;7.80;3.80;;;35.90;99.90;;;;;;5038269;28;20440;-80
2023/10/07 10:46:48;;;;;;;4.80;3.20;;;35.80;99.90;;;;;;5022678;28;20424;-81
2023/10/07 10:49:18;;;;;;;7.33;3.70;;;35.60;99.90;;;;;;5038193;28;20428;-79
2023/10/07 10:51:46;;;;;;;5.70;3.30;;;35.70;99.90;;;;;;5055503;28;20771;-81
2023/10/07 10:54:17;;;;;;;6.50;3.30;;;35.70;99.90;;;;;;5034311;28;22743;-79
2023/10/07 10:56:55;;;;;;;6.70;3.43;;;35.50;99.90;;;;;;5055189;28;20884;-80
2023/10/07 10:59:22;;;;;;;9.07;3.57;;;35.80;99.90;;;;;;5055483;28;20421;-80
2023/10/07 11:01:52;;;;;;;8.47;3.43;;;35.70;99.90;;;;;;5036395;28;20462;-80
2023/10/07 11:04:19;;;;;;;6.40;3.20;;;35.50;99.90;;;;;;5055954;28;20445;-80
2023/10/07 11:06:50;;;;;;;8.23;3.53;;;35.60;99.90;;;;;;5037910;28;20832;-80
2023/10/07 11:09:18;;;;;;;4.97;3.30;;;35.80;99.90;;;;;;5056968;28;20447;-80
2023/10/07 11:11:48;;;;;;;8.03;3.70;;;35.50;99.90;;;;;;5052824;28;20452;-81
2023/10/07 11:14:20;;;;;;;5.20;3.80;;;35.30;99.90;;;;;;5057111;28;21002;-81
2023/10/07 11:16:46;;;;;;;8.27;3.47;;;35.30;99.90;;;;;;5056737;28;20445;-80
2023/10/07 11:19:14;;;;;;;7.63;3.60;;;35.10;99.90;;;;;;5057035;28;20506;-80
2023/10/07 11:21:41;;;;;;;5.87;3.30;;;35.30;99.90;;;;;;5057088;28;20422;-81
2023/10/07 11:24:07;;;;;;;6.90;3.73;;;35.10;99.90;;;;;;5056928;28;20447;-81
2023/10/07 11:26:33;;;;;;;7.33;3.70;;;34.70;99.90;;;;;;5056922;28;20484;-80
2023/10/07 11:29:10;;;;;;;9.10;3.50;;;34.70;99.90;;;;;;5053234;28;20227;-80
2023/10/07 11:31:37;;;;;;;8.57;3.30;;;34.60;99.90;;;;;;5056906;28;20420;-80
2023/10/07 11:34:04;;;;;;;5.37;3.03;;;34.50;99.90;;;;;;5038492;28;20456;-80
2023/10/07 11:36:40;;;;;;;7.43;3.30;;;34.50;99.90;;;;;;5057219;28;20420;-80
2023/10/07 11:39:08;;;;;;;7.27;4.10;;;34.50;99.90;;;;;;5038592;28;20432;-81
2023/10/07 11:41:34;;;;;;;8.93;4.03;;;34.60;99.90;;;;;;5056459;28;20788;-81
2023/10/07 11:43:59;;;;;;;8.60;2.77;;;34.70;99.90;;;;;;5053503;28;20457;-80
2023/10/07 11:46:25;;;;;;;7.33;3.03;;;34.90;99.90;;;;;;5056942;28;20190;-80
2023/10/07 11:48:51;;;;;;;4.63;2.43;;;34.60;99.90;;;;;;5056460;28;20192;-81
2023/10/07 11:51:17;;;;;;;4.03;2.60;;;34.80;99.90;;;;;;5057103;28;20174;-81
2023/10/07 11:53:43;;;;;;;7.10;3.07;;;34.50;99.90;;;;;;5056735;28;20471;-81
2023/10/07 11:56:11;;;;;;;5.37;2.83;;;34.50;99.90;;;;;;5056429;28;20424;-81
2023/10/07 11:58:37;;;;;;;5.63;3.73;;;34.60;99.90;;;;;;5056279;28;20221;-81
2023/10/07 12:01:03;;;;;;;7.13;3.43;;;34.50;99.90;;;;;;5054015;28;20808;-80
2023/10/07 12:03:30;;;;;;;5.70;3.20;;;34.40;99.90;;;;;;5055943;28;20440;-80
2023/10/07 12:05:58;;;;;;;4.50;3.20;;;34.50;99.90;;;;;;5054138;28;20192;-80
2023/10/07 12:08:23;;;;;;;5.80;2.50;;;34.40;99.90;;;;;;5056428;28;20409;-80
2023/10/07 12:10:50;;;;;;;6.93;3.13;;;34.40;99.90;;;;;;5038561;28;20421;-80
2023/10/07 12:13:15;;;;;;;7.23;3.17;;;34.50;99.90;;;;;;5056204;28;20190;-80
2023/10/07 12:15:42;;;;;;;3.77;2.50;;;34.20;99.90;;;;;;5056208;28;20506;-80
2023/10/07 12:18:12;;;;;;;8.53;3.23;;;34.10;99.90;;;;;;5053201;28;20672;-80
2023/10/07 12:20:39;;;;;;;5.07;2.73;;;34.00;99.90;;;;;;5038601;28;20423;-80
2023/10/07 12:23:04;;;;;;;6.00;2.90;;;33.80;99.90;;;;;;5055592;28;20813;-80
2023/10/07 12:25:31;;;;;;;7.60;3.53;;;33.80;99.90;;;;;;5059593;28;20423;-81
2023/10/07 12:27:56;;;;;;;6.57;3.17;;;33.70;99.90;;;;;;5059753;28;20242;-80
2023/10/07 12:30:22;;;;;;;5.37;3.20;;;33.80;99.90;;;;;;5059515;28;20925;-80
2023/10/07 12:32:51;;;;;;;7.20;3.60;;;33.70;99.90;;;;;;5056247;28;20208;-79
2023/10/07 12:35:18;;;;;;;3.37;2.53;;;33.60;99.90;;;;;;5059102;28;20470;-79
2023/10/07 12:37:47;;;;;;;4.30;2.67;;;33.40;99.90;;;;;;5058672;28;20454;-80
2023/10/07 12:40:19;;;;;;;4.03;2.93;;;33.10;99.90;;;;;;5058905;28;20427;-79
2023/10/07 12:42:46;;;;;;;4.60;2.90;;;32.80;99.90;;;;;;5039970;28;20457;-79
2023/10/07 12:45:12;;;;;;;6.23;3.00;;;32.60;99.90;;;;;;5057488;28;20484;-79
2023/10/07 12:47:41;;;;;;;10.93;3.73;;;32.40;99.90;;;;;;5057434;28;20467;-79
2023/10/07 12:50:20;;;;;;;4.70;2.70;;;32.30;99.90;;;;;;5054460;28;20188;-79
2023/10/07 12:52:53;;;;;;;5.63;3.47;;;32.00;99.90;;;;;;5041491;28;20429;-79
2023/10/07 12:55:19;;;;;;;5.93;3.20;;;31.90;99.90;;;;;;5056470;28;20476;-79
2023/10/07 12:57:44;;;;;;;6.70;3.90;;;31.70;99.90;;;;;;5056522;28;20442;-79
2023/10/07 13:00:22;;;;;;;7.03;2.60;;;31.60;99.90;;;;;;5056577;28;20228;-78
2023/10/07 13:02:48;;;;;;;5.73;2.73;;;31.60;99.90;;;;;;5056329;28;20270;-79
2023/10/07 13:05:18;;;;;;;4.70;2.90;;;31.70;99.90;;;;;;5054313;28;20436;-79
2023/10/07 13:07:46;;;;;;;8.67;3.30;;;31.70;99.90;;;;;;5056457;28;20800;-79
2023/10/07 13:10:12;;;;;;;5.63;2.90;;;31.70;99.90;;;;;;5055651;28;21028;-79
2023/10/07 13:12:39;;;;;;;4.77;2.77;;;31.40;99.90;;;;;;5057508;28;20424;-80
2023/10/07 13:15:15;;;;;;;4.70;2.57;;;31.40;99.90;;;;;;5039047;28;20474;-79
2023/10/07 13:17:45;;;;;;;3.87;2.60;;;31.30;99.90;;;;;;5039817;28;20541;-80
2023/10/07 13:20:20;;;;;;;7.10;3.03;;;31.30;99.90;;;;;;5057171;28;20779;-79
2023/10/07 13:22:46;;;;;;;6.63;3.43;;;31.10;99.90;;;;;;5053702;28;20706;-79
2023/10/07 13:25:13;;;;;;;4.60;2.90;;;31.10;99.90;;;;;;5056548;28;20433;-80
2023/10/07 13:27:39;;;;;;;6.30;3.10;;;31.10;99.90;;;;;;5056911;28;20436;-79
2023/10/07 13:30:11;;;;;;;8.10;3.90;;;31.00;99.90;;;;;;5056221;28;20933;-79
2023/10/07 13:32:37;;;;;;;6.50;3.40;;;30.80;99.90;;;;;;5056291;28;20413;-79
2023/10/07 13:35:08;;;;;;;5.50;3.23;;;30.80;99.90;;;;;;5056328;28;20480;-79
2023/10/07 13:37:34;;;;;;;5.23;3.07;;;30.70;99.90;;;;;;5056522;28;20937;-79
2023/10/07 13:40:06;;;;;;;4.10;3.00;;;30.70;99.90;;;;;;5053021;28;20452;-79
2023/10/07 13:42:32;;;;;;;4.53;2.50;;;30.70;99.90;;;;;;5056399;28;20186;-79
2023/10/07 13:44:57;;;;;;;6.67;3.53;;;30.50;99.90;;;;;;5056050;28;20465;-79
2023/10/07 13:47:23;;;;;;;7.90;3.63;;;30.40;99.90;;;;;;5056688;28;20644;-79
2023/10/07 13:49:49;;;;;;;5.73;3.10;;;30.40;99.90;;;;;;5055769;28;20208;-79